Time;durP1;ratioP1;P1;durP2;ratioP2;P2;SDS_P1;SDS_P2;PMS_P1;PMS_P2;Temp;Humidity;BMP_temperature;BMP_pressure;BME280_temperature;BME280_humidity;BME280_pressure;Samples;Min_cycle;Max_cycle;Signal;HPM_P1;HPM_P2
2023/01/10 00:00:58;;;;;;;16.70;12.10;;;24.40;87.80;;;;;;1834046;77;21630;-89
2023/01/10 00:03:29;;;;;;;15.15;11.33;;;24.40;87.90;;;;;;1878211;76;21078;-89
2023/01/10 00:05:59;;;;;;;11.33;8.03;;;24.40;87.80;;;;;;1813011;77;21112;-88
2023/01/10 00:08:30;;;;;;;22.87;16.25;;;24.40;87.60;;;;;;1874658;76;21238;-88
2023/01/10 00:13:22;;;;;;;26.75;18.62;;;24.40;88.10;;;;;;1875246;76;21561;-88
2023/01/10 00:13:33;;;;;;;20.50;14.18;;;24.40;87.80;;;;;;1859264;76;21146;-88
2023/01/10 00:16:07;;;;;;;13.83;7.72;;;24.40;88.10;;;;;;1840414;77;21074;-88
2023/01/10 00:18:39;;;;;;;12.23;7.78;;;24.40;87.40;;;;;;1856885;76;21086;-88
2023/01/10 00:21:13;;;;;;;11.53;8.60;;;24.40;87.60;;;;;;1861878;76;21056;-88
2023/01/10 00:23:44;;;;;;;11.03;6.35;;;24.40;88.00;;;;;;1858267;76;21138;-89
2023/01/10 00:26:16;;;;;;;11.08;6.62;;;24.40;88.30;;;;;;1853946;76;21042;-88
2023/01/10 00:28:50;;;;;;;11.83;7.15;;;24.40;88.30;;;;;;1849935;77;21080;-87
2023/01/10 00:31:26;;;;;;;18.67;10.33;;;24.40;88.60;;;;;;1857435;76;21132;-89
2023/01/10 00:34:01;;;;;;;19.70;14.28;;;24.40;88.90;;;;;;1845253;76;21223;-72
2023/01/10 00:36:32;;;;;;;22.85;15.30;;;24.40;88.90;;;;;;1845417;76;21220;-70
2023/01/10 00:39:06;;;;;;;14.50;8.45;;;24.40;88.90;;;;;;1850588;77;21099;-71
2023/01/10 00:44:26;;;;;;;17.15;11.35;;;24.50;90.00;;;;;;1855370;76;21127;-71
2023/01/10 00:46:57;;;;;;;11.55;8.13;;;24.50;89.20;;;;;;1850514;76;21162;-72
2023/01/10 00:49:28;;;;;;;16.12;9.75;;;24.50;89.20;;;;;;1843960;77;21141;-71
2023/01/10 00:51:59;;;;;;;17.02;11.53;;;24.50;89.30;;;;;;1852886;76;21217;-72
2023/01/10 00:54:30;;;;;;;10.70;7.30;;;24.60;88.70;;;;;;1853436;75;21083;-71
2023/01/10 00:57:01;;;;;;;12.73;7.53;;;24.60;88.60;;;;;;1841788;76;21673;-71
2023/01/10 00:59:32;;;;;;;15.55;9.63;;;24.60;88.30;;;;;;1837925;77;21850;-70
2023/01/10 01:02:03;;;;;;;11.83;9.20;;;24.60;88.80;;;;;;1850523;76;21209;-71
2023/01/10 01:04:34;;;;;;;8.98;6.50;;;24.60;88.30;;;;;;1847320;76;21107;-70
2023/01/10 01:07:24;;;;;;;10.00;6.45;;;24.50;88.40;;;;;;1846338;76;21720;-71
2023/01/10 01:12:44;;;;;;;9.33;5.65;;;24.60;87.70;;;;;;1874311;75;21193;-69
2023/01/10 01:15:15;;;;;;;9.33;6.58;;;24.60;88.40;;;;;;1921728;73;21473;-69
2023/01/10 01:17:46;;;;;;;10.93;6.60;;;24.60;87.70;;;;;;1925682;73;21522;-69
2023/01/10 01:20:19;;;;;;;9.93;6.47;;;24.60;87.90;;;;;;1921081;73;21068;-71
2023/01/10 01:22:51;;;;;;;33.05;9.55;;;24.60;87.90;;;;;;1896524;73;21195;-70
2023/01/10 01:25:22;;;;;;;53.55;10.95;;;24.60;88.60;;;;;;1924635;73;21477;-69
2023/01/10 01:27:53;;;;;;;11.88;7.75;;;24.70;88.60;;;;;;1922304;73;21078;-69
2023/01/10 01:30:25;;;;;;;10.82;7.40;;;24.70;88.80;;;;;;1918453;73;21149;-70
2023/01/10 01:32:56;;;;;;;9.90;7.53;;;24.70;88.60;;;;;;1920840;73;21154;-69
2023/01/10 01:35:27;;;;;;;11.20;6.80;;;24.80;88.50;;;;;;1917647;73;21072;-71
2023/01/10 01:37:58;;;;;;;10.50;7.47;;;24.80;88.50;;;;;;1924030;73;21219;-72
2023/01/10 01:40:31;;;;;;;10.08;6.78;;;24.80;88.30;;;;;;1929014;73;21127;-71
2023/01/10 01:43:02;;;;;;;12.07;7.87;;;24.90;88.40;;;;;;1931274;73;21666;-71
2023/01/10 01:45:39;;;;;;;13.72;8.15;;;24.90;88.40;;;;;;1924381;73;21091;-70
2023/01/10 01:48:19;;;;;;;14.78;8.88;;;24.90;87.70;;;;;;1920735;73;21158;-71
2023/01/10 01:51:14;;;;;;;8.85;7.20;;;24.90;88.50;;;;;;1921153;73;21253;-72
2023/01/10 01:53:50;;;;;;;9.30;6.58;;;24.90;87.70;;;;;;1923164;73;21660;-72
2023/01/10 01:56:41;;;;;;;9.85;6.60;;;24.90;87.70;;;;;;1923781;73;21193;-72
2023/01/10 01:59:22;;;;;;;10.00;6.40;;;24.90;87.50;;;;;;1920024;73;21918;-72
2023/01/10 02:01:56;;;;;;;9.60;6.30;;;24.90;87.70;;;;;;1924178;73;21048;-71
2023/01/10 02:04:29;;;;;;;9.30;6.92;;;25.00;87.10;;;;;;1924180;73;21088;-71
2023/01/10 02:07:01;;;;;;;9.68;6.50;;;25.00;88.20;;;;;;1920602;73;21183;-71
2023/01/10 02:09:43;;;;;;;9.90;7.12;;;25.00;87.90;;;;;;1919797;73;21148;-72
2023/01/10 02:12:15;;;;;;;9.13;6.95;;;25.00;87.50;;;;;;1897776;73;21124;-72
2023/01/10 02:14:49;;;;;;;11.60;8.18;;;25.00;87.80;;;;;;1870487;75;21055;-72
2023/01/10 02:17:20;;;;;;;10.95;8.00;;;25.00;87.50;;;;;;1839743;77;21108;-71
2023/01/10 02:19:56;;;;;;;9.80;7.80;;;25.00;87.80;;;;;;1872744;75;21168;-72
2023/01/10 02:22:52;;;;;;;10.72;8.15;;;25.10;87.90;;;;;;1872007;75;21185;-72
2023/01/10 02:25:42;;;;;;;11.53;8.07;;;25.10;87.60;;;;;;1863433;75;21182;-72
2023/01/10 02:28:36;;;;;;;10.70;7.97;;;25.20;87.70;;;;;;1911841;74;21135;-71
2023/01/10 02:31:21;;;;;;;12.40;8.68;;;25.20;87.40;;;;;;1912781;73;21200;-72
2023/01/10 02:34:12;;;;;;;14.25;8.80;;;25.30;87.80;;;;;;1909775;73;21152;-73
2023/01/10 02:37:03;;;;;;;13.28;8.60;;;25.30;88.10;;;;;;1912833;73;21179;-73
2023/01/10 02:39:36;;;;;;;16.00;10.50;;;25.30;87.30;;;;;;1912780;73;21157;-72
2023/01/10 02:42:15;;;;;;;13.08;8.85;;;25.30;86.90;;;;;;1896910;73;22184;-72
2023/01/10 02:44:52;;;;;;;11.63;8.68;;;25.40;86.70;;;;;;1909946;74;21225;-72
2023/01/10 02:47:26;;;;;;;14.07;9.55;;;25.40;87.00;;;;;;1912983;74;21135;-73
2023/01/10 02:49:56;;;;;;;13.93;8.65;;;25.40;86.70;;;;;;1869285;75;21676;-73
2023/01/10 02:52:30;;;;;;;12.43;7.67;;;25.50;87.00;;;;;;1836882;77;21159;-73
2023/01/10 02:55:03;;;;;;;11.68;8.03;;;25.50;86.30;;;;;;1866378;76;21756;-73
2023/01/10 02:57:53;;;;;;;11.48;8.40;;;25.60;86.10;;;;;;1914907;74;21111;-73
2023/01/10 03:00:44;;;;;;;11.10;7.58;;;25.60;86.40;;;;;;1915435;73;21092;-73
2023/01/10 03:03:36;;;;;;;10.75;6.55;;;25.70;85.70;;;;;;1911228;74;21701;-73
2023/01/10 03:06:09;;;;;;;12.07;7.53;;;25.70;85.30;;;;;;1912900;74;21173;-74
2023/01/10 03:08:55;;;;;;;8.35;6.72;;;25.80;85.00;;;;;;1911374;74;21148;-73
2023/01/10 03:11:41;;;;;;;10.30;6.10;;;25.80;84.80;;;;;;1910880;73;21157;-72
2023/01/10 03:14:14;;;;;;;9.58;6.00;;;25.80;84.40;;;;;;1911608;74;21143;-74
2023/01/10 03:16:48;;;;;;;9.08;6.17;;;25.90;83.80;;;;;;1916062;73;21107;-72
2023/01/10 03:19:24;;;;;;;10.58;5.80;;;25.90;83.80;;;;;;1914523;73;21599;-73
2023/01/10 03:21:57;;;;;;;9.23;6.53;;;25.90;83.50;;;;;;1912913;73;21317;-74
2023/01/10 03:24:46;;;;;;;10.03;6.17;;;26.00;83.60;;;;;;1875552;75;21171;-72
2023/01/10 03:27:23;;;;;;;6.97;5.30;;;26.00;83.20;;;;;;1867983;75;21180;-73
2023/01/10 03:29:56;;;;;;;8.10;6.45;;;26.10;82.90;;;;;;1914573;73;21198;-73
2023/01/10 03:32:28;;;;;;;9.95;6.80;;;26.10;82.60;;;;;;1820146;78;21699;-72
2023/01/10 03:35:06;;;;;;;10.35;6.90;;;26.10;82.60;;;;;;1915214;73;21159;-72
2023/01/10 03:37:58;;;;;;;10.18;6.53;;;26.20;82.30;;;;;;1911816;73;21143;-73
2023/01/10 03:40:35;;;;;;;11.78;6.35;;;26.20;82.10;;;;;;1914247;73;21217;-73
2023/01/10 03:46:48;;;;;;;8.93;6.65;;;26.20;81.90;;;;;;1909482;73;21652;-73
2023/01/10 03:49:21;;;;;;;10.23;6.72;;;26.20;82.00;;;;;;1916801;73;21052;-73
2023/01/10 03:51:53;;;;;;;8.55;7.10;;;26.20;81.90;;;;;;1913730;73;21969;-72
2023/01/10 03:54:25;;;;;;;9.40;6.75;;;26.20;82.10;;;;;;1911463;73;21136;-72
2023/01/10 03:56:56;;;;;;;8.13;5.80;;;26.20;82.00;;;;;;1910675;75;21194;-72
2023/01/10 03:59:30;;;;;;;10.38;6.05;;;26.30;81.70;;;;;;1911933;73;21176;-73
2023/01/10 04:02:04;;;;;;;7.17;5.67;;;26.30;81.40;;;;;;1910663;74;21081;-73
2023/01/10 04:04:35;;;;;;;8.28;5.85;;;26.30;81.40;;;;;;1913289;73;21120;-73
2023/01/10 04:07:06;;;;;;;11.80;6.65;;;26.30;81.40;;;;;;1911521;74;21132;-73
2023/01/10 04:09:38;;;;;;;9.60;7.00;;;26.30;81.30;;;;;;1913242;73;21637;-73
2023/01/10 04:12:09;;;;;;;10.95;5.78;;;26.30;81.20;;;;;;1904984;74;21170;-72
2023/01/10 04:14:40;;;;;;;8.63;5.90;;;26.30;81.20;;;;;;1911057;73;21159;-72
2023/01/10 04:17:11;;;;;;;7.33;5.20;;;26.40;81.10;;;;;;1913066;73;21204;-72
2023/01/10 04:19:42;;;;;;;9.95;5.53;;;26.40;80.80;;;;;;1911157;73;21140;-73
2023/01/10 04:22:13;;;;;;;7.35;5.45;;;26.50;80.50;;;;;;1915562;73;21131;-73
2023/01/10 04:24:47;;;;;;;7.08;5.62;;;26.50;80.60;;;;;;1911164;75;21221;-72
2023/01/10 04:27:18;;;;;;;8.60;5.25;;;26.50;81.30;;;;;;1915903;74;21166;-74
2023/01/10 04:29:52;;;;;;;7.37;5.40;;;26.50;80.40;;;;;;1910014;74;21131;-73
2023/01/10 04:32:23;;;;;;;6.78;5.40;;;26.50;80.10;;;;;;1913991;73;21191;-73
2023/01/10 04:34:53;;;;;;;9.45;6.50;;;26.50;80.30;;;;;;1912884;73;21178;-73
2023/01/10 04:37:24;;;;;;;7.87;5.65;;;26.50;80.20;;;;;;1911168;73;21089;-72
2023/01/10 04:39:55;;;;;;;8.75;5.17;;;26.60;80.10;;;;;;1912031;73;21206;-73
2023/01/10 04:42:26;;;;;;;8.68;4.90;;;26.50;80.00;;;;;;1912087;74;21145;-72
2023/01/10 04:44:57;;;;;;;9.30;5.10;;;26.60;80.20;;;;;;1914106;73;21242;-72
2023/01/10 04:47:28;;;;;;;6.80;4.37;;;26.60;80.10;;;;;;1910958;73;22145;-72
2023/01/10 04:49:58;;;;;;;7.65;5.12;;;26.60;80.10;;;;;;1910302;75;21131;-73
2023/01/10 04:52:29;;;;;;;10.85;4.97;;;26.60;80.00;;;;;;1910490;74;21624;-73
2023/01/10 04:55:00;;;;;;;6.22;4.83;;;26.60;79.90;;;;;;1912064;73;21794;-73
2023/01/10 04:57:31;;;;;;;6.00;4.50;;;26.60;79.90;;;;;;1911613;73;21651;-73
2023/01/10 05:00:01;;;;;;;8.23;4.17;;;26.60;79.80;;;;;;1912525;73;21091;-73
2023/01/10 05:02:32;;;;;;;9.93;4.92;;;26.60;79.80;;;;;;1915940;74;21130;-74
2023/01/10 05:05:04;;;;;;;8.33;5.42;;;26.60;79.50;;;;;;1914111;73;21165;-72
2023/01/10 05:07:35;;;;;;;6.33;4.33;;;26.60;79.50;;;;;;1914988;73;21225;-74
2023/01/10 05:10:07;;;;;;;6.72;4.45;;;26.60;79.40;;;;;;1919783;73;21177;-72
2023/01/10 05:12:38;;;;;;;6.65;4.05;;;26.60;79.30;;;;;;1933182;73;21606;-73
2023/01/10 05:15:09;;;;;;;9.53;4.50;;;26.60;79.20;;;;;;1936112;73;21067;-73
2023/01/10 05:17:40;;;;;;;7.10;4.10;;;26.60;79.40;;;;;;1895307;74;21121;-72
2023/01/10 05:20:12;;;;;;;11.22;5.00;;;26.60;79.40;;;;;;1935028;73;21162;-72
2023/01/10 05:22:43;;;;;;;7.00;4.30;;;26.60;79.60;;;;;;1931568;73;21083;-72
2023/01/10 05:25:14;;;;;;;7.30;4.95;;;26.60;79.50;;;;;;1898737;74;21260;-72
2023/01/10 05:27:45;;;;;;;10.43;5.12;;;26.50;79.50;;;;;;1902715;74;21086;-72
2023/01/10 05:30:20;;;;;;;8.70;5.22;;;26.50;79.70;;;;;;1900475;74;21166;-74
2023/01/10 05:32:57;;;;;;;5.95;4.12;;;26.50;79.70;;;;;;1938364;73;21150;-71
2023/01/10 05:35:30;;;;;;;6.83;4.50;;;26.50;79.70;;;;;;1936423;73;21158;-72
2023/01/10 05:38:02;;;;;;;6.83;3.70;;;26.60;79.40;;;;;;1899238;74;21111;-73
2023/01/10 05:40:33;;;;;;;4.90;3.75;;;26.60;79.40;;;;;;1934750;73;21899;-73
2023/01/10 05:43:04;;;;;;;6.55;3.92;;;26.60;79.40;;;;;;1934950;73;21216;-73
2023/01/10 05:45:35;;;;;;;6.78;4.20;;;26.60;79.40;;;;;;1933444;74;21142;-73
2023/01/10 05:48:08;;;;;;;7.25;3.80;;;26.60;79.30;;;;;;1936072;73;21602;-72
2023/01/10 05:50:40;;;;;;;7.67;4.60;;;26.70;79.10;;;;;;1898907;74;21907;-72
2023/01/10 05:53:11;;;;;;;6.30;3.62;;;26.70;79.10;;;;;;1900828;74;21183;-70
2023/01/10 05:55:42;;;;;;;4.53;3.60;;;26.80;78.60;;;;;;1933829;73;21254;-70
2023/01/10 05:58:13;;;;;;;5.37;3.25;;;26.80;78.40;;;;;;1936914;73;21123;-70
2023/01/10 06:01:02;;;;;;;8.23;4.12;;;26.80;78.20;;;;;;1893379;74;21716;-70
2023/01/10 06:03:33;;;;;;;7.00;4.25;;;26.80;78.30;;;;;;1934890;73;21472;-72
2023/01/10 06:06:04;;;;;;;6.12;3.70;;;26.90;78.30;;;;;;1934245;73;21158;-69
2023/01/10 06:08:49;;;;;;;10.03;4.20;;;26.90;78.20;;;;;;1931423;73;21835;-69
2023/01/10 06:11:39;;;;;;;10.03;4.83;;;26.90;78.30;;;;;;1875852;74;21100;-70
2023/01/10 06:14:28;;;;;;;8.40;4.75;;;26.90;78.30;;;;;;1873090;75;21150;-70
2023/01/10 06:16:59;;;;;;;9.58;4.67;;;27.00;78.40;;;;;;1863863;75;21244;-69
2023/01/10 06:19:47;;;;;;;7.37;5.00;;;27.00;78.50;;;;;;1907247;73;21802;-69
2023/01/10 06:22:25;;;;;;;7.33;4.97;;;27.00;78.50;;;;;;1864659;75;21133;-70
2023/01/10 06:24:56;;;;;;;9.15;4.92;;;27.00;78.50;;;;;;1905065;74;21610;-72
2023/01/10 06:27:27;;;;;;;5.90;4.95;;;27.00;78.70;;;;;;1869831;75;21149;-71
2023/01/10 06:30:01;;;;;;;7.17;4.95;;;26.90;78.60;;;;;;1904196;74;21120;-72
2023/01/10 06:32:50;;;;;;;7.67;4.92;;;26.90;78.90;;;;;;1900138;73;21292;-72
2023/01/10 06:35:30;;;;;;;9.18;5.08;;;27.00;78.90;;;;;;1905015;74;21187;-71
2023/01/10 06:38:02;;;;;;;11.33;5.05;;;27.00;79.00;;;;;;1905497;74;21223;-72
2023/01/10 06:40:33;;;;;;;7.03;4.47;;;27.00;78.70;;;;;;1906621;73;21163;-69
2023/01/10 06:43:04;;;;;;;6.62;4.72;;;27.00;78.30;;;;;;1866182;76;21150;-71
2023/01/10 06:45:35;;;;;;;5.85;4.55;;;27.10;78.40;;;;;;1905843;74;21691;-71
2023/01/10 06:48:08;;;;;;;9.15;4.90;;;27.00;78.40;;;;;;1868253;75;21136;-71
2023/01/10 06:50:39;;;;;;;8.25;4.78;;;27.10;78.60;;;;;;1907100;74;21206;-72
2023/01/10 06:53:10;;;;;;;6.95;4.45;;;27.10;78.30;;;;;;1868723;75;21136;-71
2023/01/10 06:55:40;;;;;;;8.25;4.87;;;27.10;78.40;;;;;;1905927;73;21186;-71
2023/01/10 06:58:11;;;;;;;9.35;4.40;;;27.10;78.40;;;;;;1867911;75;21694;-72
2023/01/10 07:00:42;;;;;;;10.10;4.72;;;27.10;78.40;;;;;;1905672;73;21076;-72
2023/01/10 07:03:16;;;;;;;6.90;4.83;;;27.10;78.50;;;;;;1905319;74;21596;-72
2023/01/10 07:05:46;;;;;;;8.45;4.45;;;27.10;78.40;;;;;;1862964;76;21611;-72
2023/01/10 07:08:17;;;;;;;6.58;4.53;;;27.10;78.60;;;;;;1908271;74;21072;-71
2023/01/10 07:10:49;;;;;;;6.80;4.30;;;27.10;78.50;;;;;;1905422;74;21128;-72
2023/01/10 07:13:20;;;;;;;6.47;4.42;;;27.10;78.30;;;;;;1877859;75;21229;-72
2023/01/10 07:15:52;;;;;;;6.78;4.22;;;27.10;78.10;;;;;;1876672;76;21129;-72
2023/01/10 07:18:23;;;;;;;6.03;4.15;;;27.10;78.10;;;;;;1841616;77;21475;-72
2023/01/10 07:20:54;;;;;;;6.40;4.20;;;27.10;78.20;;;;;;1877367;75;21130;-73
2023/01/10 07:23:26;;;;;;;5.37;3.47;;;27.10;78.30;;;;;;1839864;76;21130;-72
2023/01/10 07:25:57;;;;;;;5.75;3.45;;;27.10;77.90;;;;;;1835658;77;21769;-71
2023/01/10 07:28:28;;;;;;;7.40;3.42;;;27.10;78.00;;;;;;1876905;75;21170;-72
2023/01/10 07:31:04;;;;;;;5.45;3.27;;;27.10;78.10;;;;;;1877723;75;21528;-72
2023/01/10 07:33:35;;;;;;;6.28;3.77;;;27.10;78.00;;;;;;1876777;75;21748;-72
2023/01/10 07:36:06;;;;;;;6.20;3.02;;;27.00;78.20;;;;;;1877136;76;21155;-72
2023/01/10 07:38:38;;;;;;;7.37;3.85;;;27.10;78.40;;;;;;1875701;75;21454;-72
2023/01/10 07:41:09;;;;;;;4.15;3.17;;;27.00;78.90;;;;;;1876627;75;21144;-72
2023/01/10 07:43:40;;;;;;;6.05;3.30;;;27.00;79.50;;;;;;1876678;75;21213;-72
2023/01/10 07:46:11;;;;;;;6.35;3.05;;;27.00;79.90;;;;;;1877611;75;21634;-72
2023/01/10 07:48:42;;;;;;;7.17;3.30;;;27.00;80.00;;;;;;1878238;75;21221;-72
2023/01/10 07:51:13;;;;;;;7.70;3.20;;;27.00;80.50;;;;;;1878677;76;21213;-73
2023/01/10 07:53:47;;;;;;;6.83;3.60;;;27.00;80.40;;;;;;1878317;75;21153;-72
2023/01/10 07:56:18;;;;;;;5.22;3.30;;;27.00;80.00;;;;;;1879564;75;22040;-71
2023/01/10 07:59:00;;;;;;;7.85;3.30;;;27.00;80.10;;;;;;1840888;76;21243;-72
2023/01/10 08:01:31;;;;;;;7.50;3.70;;;27.00;80.10;;;;;;1883483;75;21188;-72
2023/01/10 08:04:05;;;;;;;6.42;3.75;;;26.90;80.10;;;;;;1878938;75;21648;-73
2023/01/10 08:06:45;;;;;;;9.45;4.10;;;27.00;80.10;;;;;;1852450;75;21162;-72
2023/01/10 08:09:18;;;;;;;8.10;3.37;;;27.00;80.00;;;;;;1876564;75;21119;-71
2023/01/10 08:11:50;;;;;;;6.83;3.60;;;27.00;80.00;;;;;;1876661;73;21171;-72
2023/01/10 08:14:20;;;;;;;6.25;3.62;;;27.00;79.80;;;;;;1871641;75;21142;-72
2023/01/10 08:16:51;;;;;;;9.53;4.00;;;27.00;79.80;;;;;;1874163;76;21171;-73
2023/01/10 08:22:13;;;;;;;5.70;3.75;;;27.00;80.00;;;;;;1849782;76;21162;-72
2023/01/10 08:24:48;;;;;;;7.33;3.65;;;27.00;80.00;;;;;;1839428;76;21807;-72
2023/01/10 08:27:23;;;;;;;6.15;3.98;;;27.00;79.60;;;;;;1844205;76;21199;-72
2023/01/10 08:29:54;;;;;;;5.28;3.50;;;27.00;79.60;;;;;;1843221;76;21213;-72
2023/01/10 08:32:27;;;;;;;6.85;3.98;;;27.00;79.60;;;;;;1855687;76;21102;-71
2023/01/10 08:34:58;;;;;;;4.17;3.10;;;26.90;79.70;;;;;;1858185;76;21180;-71
2023/01/10 08:37:29;;;;;;;5.22;3.50;;;26.90;79.50;;;;;;1857638;76;21156;-72
2023/01/10 08:40:00;;;;;;;6.72;3.92;;;26.90;79.80;;;;;;1826406;77;21761;-71
2023/01/10 08:42:31;;;;;;;5.97;3.70;;;26.90;79.70;;;;;;1830868;76;21214;-73
2023/01/10 08:45:05;;;;;;;7.95;4.20;;;26.90;79.90;;;;;;1830013;76;21174;-73
2023/01/10 08:47:39;;;;;;;6.05;3.92;;;27.00;80.10;;;;;;1849401;76;21155;-71
2023/01/10 08:50:11;;;;;;;8.13;3.30;;;27.00;80.00;;;;;;1859802;76;21594;-72
2023/01/10 08:52:42;;;;;;;5.70;3.00;;;27.00;79.70;;;;;;1848782;76;21687;-72
2023/01/10 08:55:16;;;;;;;4.08;3.20;;;27.00;79.70;;;;;;1845090;76;21182;-72
2023/01/10 08:57:48;;;;;;;6.70;3.70;;;27.00;79.80;;;;;;1841307;76;21228;-72
2023/01/10 09:00:20;;;;;;;7.50;4.50;;;27.00;79.90;;;;;;1848596;76;21657;-73
2023/01/10 09:02:53;;;;;;;8.18;4.80;;;27.00;80.70;;;;;;1846113;76;21761;-73
2023/01/10 09:05:27;;;;;;;9.23;5.37;;;27.00;81.20;;;;;;1818241;77;21182;-69
2023/01/10 09:08:01;;;;;;;8.50;5.20;;;26.90;81.40;;;;;;1854150;76;21638;-72
2023/01/10 09:10:33;;;;;;;11.83;5.78;;;26.90;80.90;;;;;;1858936;76;21099;-73
2023/01/10 09:13:05;;;;;;;9.23;5.80;;;26.80;81.60;;;;;;1795552;77;21146;-73
2023/01/10 09:15:43;;;;;;;9.80;5.92;;;26.80;81.70;;;;;;1817940;77;21612;-76
2023/01/10 09:18:17;;;;;;;8.20;5.78;;;26.80;81.70;;;;;;1854850;76;21200;-72
2023/01/10 09:20:52;;;;;;;9.73;6.40;;;26.70;82.00;;;;;;1791018;77;21176;-72
2023/01/10 09:23:23;;;;;;;15.23;6.78;;;26.70;82.10;;;;;;1845736;76;21248;-73
2023/01/10 09:25:56;;;;;;;13.50;6.97;;;26.60;81.90;;;;;;1848502;76;21122;-72
2023/01/10 09:28:28;;;;;;;11.33;6.30;;;26.60;82.50;;;;;;1852794;76;21168;-72
2023/01/10 09:30:59;;;;;;;13.72;6.30;;;26.60;82.60;;;;;;1816940;77;21592;-72
2023/01/10 09:33:30;;;;;;;11.33;7.30;;;26.60;82.50;;;;;;1850871;76;21158;-72
2023/01/10 09:36:03;;;;;;;12.33;8.60;;;26.50;82.90;;;;;;1852378;76;21668;-73
2023/01/10 09:38:34;;;;;;;11.33;6.95;;;26.50;82.60;;;;;;1818373;77;21648;-72
2023/01/10 09:41:25;;;;;;;12.43;7.20;;;26.50;84.10;;;;;;1838954;76;21103;-73
2023/01/10 09:44:07;;;;;;;11.68;7.08;;;26.40;83.00;;;;;;1837889;76;21231;-73
2023/01/10 09:46:41;;;;;;;10.35;6.50;;;26.40;83.20;;;;;;1840364;76;21177;-73
2023/01/10 09:49:39;;;;;;;12.15;6.28;;;26.40;83.20;;;;;;1854644;76;21235;-73
2023/01/10 09:52:14;;;;;;;11.55;6.47;;;26.40;83.20;;;;;;1857756;76;21145;-72
2023/01/10 09:54:47;;;;;;;8.53;5.45;;;26.30;83.30;;;;;;1826934;77;21211;-72
2023/01/10 09:57:20;;;;;;;10.58;6.45;;;26.30;83.40;;;;;;1813369;77;21244;-72
2023/01/10 09:59:53;;;;;;;9.80;6.30;;;26.30;83.20;;;;;;1858322;76;21193;-73
2023/01/10 10:02:35;;;;;;;9.33;6.00;;;26.30;83.80;;;;;;1851437;76;21256;-72
2023/01/10 10:05:11;;;;;;;12.53;7.28;;;26.30;83.20;;;;;;1854035;76;21790;-72
2023/01/10 10:07:42;;;;;;;13.55;6.92;;;26.20;83.80;;;;;;1822735;77;21198;-72
2023/01/10 10:10:19;;;;;;;13.03;7.25;;;26.30;84.40;;;;;;1851823;76;21243;-73
2023/01/10 10:13:14;;;;;;;9.38;5.95;;;26.20;84.60;;;;;;1850783;76;21137;-72
2023/01/10 10:15:52;;;;;;;12.43;6.58;;;26.20;84.90;;;;;;1845759;76;21139;-73
2023/01/10 10:18:37;;;;;;;9.95;6.12;;;26.10;85.40;;;;;;1843482;76;21125;-71
2023/01/10 10:21:36;;;;;;;9.68;5.78;;;26.10;85.50;;;;;;1851076;76;21539;-72
2023/01/10 10:24:42;;;;;;;14.73;5.58;;;26.00;86.00;;;;;;1865613;75;21227;-71
2023/01/10 10:27:36;;;;;;;13.13;5.90;;;26.00;85.70;;;;;;1847071;76;21291;-73
2023/01/10 10:30:21;;;;;;;8.65;5.55;;;25.90;86.50;;;;;;1782647;76;21203;-72
2023/01/10 10:33:19;;;;;;;17.00;6.43;;;25.90;87.90;;;;;;1846352;76;21083;-71
2023/01/10 10:36:05;;;;;;;11.63;6.42;;;25.80;87.00;;;;;;1847114;76;21165;-72
2023/01/10 10:38:38;;;;;;;10.95;6.72;;;25.80;87.40;;;;;;1862995;75;21154;-72
2023/01/10 10:41:11;;;;;;;6.85;4.30;;;25.70;87.80;;;;;;1855073;76;21194;-72
2023/01/10 10:43:44;;;;;;;8.78;4.67;;;25.70;87.50;;;;;;1847087;75;21132;-72
2023/01/10 10:46:18;;;;;;;9.60;5.00;;;25.70;87.20;;;;;;1835487;77;21143;-72
2023/01/10 10:49:03;;;;;;;6.67;4.90;;;25.60;86.90;;;;;;1836244;77;21716;-72
2023/01/10 10:51:35;;;;;;;;;;;25.60;87.30;;;;;;1846936;77;21769;-73
2023/01/10 10:54:06;;;;;;;8.93;5.28;;;25.60;87.20;;;;;;1861713;75;20706;-71
2023/01/10 10:56:37;;;;;;;8.70;5.67;;;25.60;87.30;;;;;;1865483;75;21157;-72
2023/01/10 10:59:09;;;;;;;12.93;6.40;;;25.60;87.00;;;;;;1849462;75;21139;-71
2023/01/10 11:01:45;;;;;;;9.23;4.67;;;25.60;87.10;;;;;;1857157;75;21160;-71
2023/01/10 11:04:15;;;;;;;8.98;5.97;;;25.60;87.00;;;;;;1875277;76;21615;-71
2023/01/10 11:06:50;;;;;;;10.53;5.97;;;25.60;87.00;;;;;;1841280;77;21093;-71
2023/01/10 11:12:02;;;;;;;5.28;3.40;;;25.60;86.40;;;;;;1808667;75;21167;-72
2023/01/10 11:14:45;;;;;;;6.35;3.72;;;25.60;86.20;;;;;;1863340;75;21080;-72
2023/01/10 11:17:22;;;;;;;5.15;3.55;;;25.60;86.20;;;;;;1854925;75;21252;-72
2023/01/10 11:20:01;;;;;;;6.15;3.10;;;25.60;86.10;;;;;;1860335;75;21653;-72
2023/01/10 11:22:47;;;;;;;7.15;2.95;;;25.60;87.00;;;;;;1831169;77;21139;-71
2023/01/10 11:25:23;;;;;;;4.03;2.62;;;25.60;86.10;;;;;;1828597;77;21675;-72
2023/01/10 11:28:00;;;;;;;4.90;3.00;;;25.60;86.10;;;;;;1822436;78;21075;-72
2023/01/10 11:30:35;;;;;;;11.00;3.10;;;25.60;86.10;;;;;;1849785;76;21218;-72
2023/01/10 11:33:08;;;;;;;4.85;2.80;;;25.60;86.20;;;;;;1863568;76;21600;-72
2023/01/10 11:35:40;;;;;;;4.35;2.52;;;25.50;86.30;;;;;;1862105;76;21150;-71
2023/01/10 11:38:17;;;;;;;4.87;2.87;;;25.50;86.40;;;;;;1860808;76;21115;-72
2023/01/10 11:41:09;;;;;;;6.22;3.80;;;25.50;86.40;;;;;;1861402;76;21663;-72
2023/01/10 11:43:40;;;;;;;7.28;5.15;;;25.50;86.70;;;;;;1809705;77;21203;-72
2023/01/10 11:46:19;;;;;;;11.65;6.50;;;25.50;86.90;;;;;;1826717;77;21222;-72
2023/01/10 11:49:04;;;;;;;12.18;7.87;;;25.50;87.10;;;;;;1846243;76;21215;-71
2023/01/10 11:51:38;;;;;;;13.60;7.70;;;25.50;87.30;;;;;;1856632;76;21170;-71
2023/01/10 11:54:16;;;;;;;13.32;8.00;;;25.40;87.30;;;;;;1819089;77;21115;-71
2023/01/10 11:57:07;;;;;;;12.43;8.45;;;25.40;87.60;;;;;;1859834;76;21127;-72
2023/01/10 11:59:38;;;;;;;12.15;8.10;;;25.40;88.00;;;;;;1848005;77;21174;-71
2023/01/10 12:02:26;;;;;;;16.67;8.45;;;25.40;88.00;;;;;;1848459;77;21105;-72
2023/01/10 12:05:01;;;;;;;12.47;7.40;;;25.40;88.10;;;;;;1847479;76;21255;-71
2023/01/10 12:07:33;;;;;;;13.15;8.40;;;25.40;88.30;;;;;;1844893;77;21182;-71
2023/01/10 12:10:05;;;;;;;12.40;8.25;;;25.40;88.40;;;;;;1809871;77;21195;-71
2023/01/10 12:12:37;;;;;;;12.03;6.42;;;25.40;88.60;;;;;;1842008;77;21184;-70
2023/01/10 12:15:26;;;;;;;12.25;6.50;;;25.40;88.90;;;;;;1839015;77;21229;-71
2023/01/10 12:18:01;;;;;;;11.93;6.17;;;25.30;89.20;;;;;;1808450;78;21733;-87
2023/01/10 12:20:35;;;;;;;8.35;5.90;;;25.30;89.10;;;;;;1845506;76;21089;-91
2023/01/10 12:23:08;;;;;;;13.18;5.58;;;25.30;89.50;;;;;;1847438;77;21160;-88
2023/01/10 12:25:42;;;;;;;9.08;5.67;;;25.30;90.30;;;;;;1856395;76;21096;-88
2023/01/10 12:28:28;;;;;;;8.28;5.80;;;25.30;89.90;;;;;;1839845;77;21144;-89
2023/01/10 12:31:06;;;;;;;11.25;6.95;;;25.30;90.00;;;;;;1808632;77;21237;-88
2023/01/10 12:33:46;;;;;;;11.38;6.22;;;25.30;89.80;;;;;;1802747;78;21187;-88
2023/01/10 12:36:29;;;;;;;9.05;6.50;;;25.30;90.00;;;;;;1799164;78;21117;-86
2023/01/10 12:39:29;;;;;;;10.03;6.42;;;25.20;90.00;;;;;;1811517;78;21184;-90
2023/01/10 12:45:29;;;;;;;9.18;5.65;;;25.20;90.30;;;;;;1849857;77;21472;-90
2023/01/10 12:48:20;;;;;;;9.60;5.58;;;25.20;90.30;;;;;;1830280;77;21193;-91
2023/01/10 12:51:04;;;;;;;9.18;5.37;;;25.20;90.40;;;;;;1816238;78;21548;-90
2023/01/10 12:53:46;;;;;;;9.98;5.45;;;25.10;90.40;;;;;;1851500;77;21084;-90
2023/01/10 12:56:21;;;;;;;11.60;5.70;;;25.10;90.30;;;;;;1852236;77;21141;-89
2023/01/10 12:58:59;;;;;;;9.00;5.10;;;25.10;90.50;;;;;;1803737;79;21105;-91
2023/01/10 13:01:39;;;;;;;9.45;4.90;;;25.10;90.70;;;;;;1809067;78;21153;-92
2023/01/10 13:04:19;;;;;;;6.37;4.35;;;25.00;90.80;;;;;;1838120;77;21060;-91
2023/01/10 13:06:52;;;;;;;7.75;4.53;;;25.00;90.70;;;;;;1806648;78;21154;-92
2023/01/10 13:09:27;;;;;;;10.05;4.40;;;25.00;90.70;;;;;;1808630;78;21202;-91
2023/01/10 13:12:03;;;;;;;7.30;4.55;;;24.90;90.80;;;;;;1801815;78;21087;-92
2023/01/10 13:14:35;;;;;;;6.37;4.35;;;24.90;90.90;;;;;;1810462;78;21138;-91
2023/01/10 13:17:25;;;;;;;6.70;4.62;;;24.80;90.80;;;;;;1826828;77;21499;-90
2023/01/10 13:20:18;;;;;;;9.50;5.10;;;24.80;90.90;;;;;;1814406;78;21107;-91
2023/01/10 13:23:01;;;;;;;8.20;5.50;;;24.80;91.40;;;;;;1807362;78;21604;-90
2023/01/10 13:25:38;;;;;;;8.65;5.25;;;24.80;91.00;;;;;;1811302;78;21267;-89
2023/01/10 13:28:23;;;;;;;9.98;5.70;;;24.80;91.00;;;;;;1804946;78;21150;-88
2023/01/10 13:31:01;;;;;;;8.28;5.50;;;24.80;90.60;;;;;;1828549;77;21836;-88
2023/01/10 13:33:39;;;;;;;8.28;5.78;;;24.80;90.50;;;;;;1794259;78;21087;-89
2023/01/10 13:36:12;;;;;;;10.13;6.12;;;24.70;90.50;;;;;;1812407;78;21240;-91
2023/01/10 13:38:59;;;;;;;13.20;6.20;;;24.70;90.80;;;;;;1791574;78;21562;-91
2023/01/10 13:45:12;;;;;;;10.05;6.97;;;24.60;91.00;;;;;;1754971;80;20278;-88
2023/01/10 13:47:53;;;;;;;10.93;6.75;;;24.50;91.40;;;;;;1754852;80;21199;-88